Terminal Aerodrome Forecast
Issued by NWS Wilmington, NC

Home | Current Version | Previous Version | Text Only | Print | Product List | Glossary On
Versions: 1 2 3 4 5 6 7 8 9 10 11 12 13 14
883
FTUS42 KILM 280200 AAA
TAFFLO
TAF AMD
KFLO 280200Z 2802/2824 VRB03KT P6SM SCT060
      TEMPO 2809/2812 4SM BR SCT008
     FM281200 06006KT P6SM SCT035
     FM281800 09006KT P6SM SCT035 BKN120=

USA.gov is the U.S. government's official web portal to all federal, state and local government web resources and services.